Time;durP1;ratioP1;P1;durP2;ratioP2;P2;SDS_P1;SDS_P2;PMS_P1;PMS_P2;Temp;Humidity;BMP_temperature;BMP_pressure;BME280_temperature;BME280_humidity;BME280_pressure;Samples;Min_cycle;Max_cycle;Signal;HPM_P1;HPM_P2
2021/03/04 00:00:15;;;;;;;13.55;6.40;;;;;;;6.98;49.23;97084.94;1758463;80;21101;-83
2021/03/04 00:02:44;;;;;;;18.60;10.90;;;;;;;6.97;49.13;97073.33;1757146;80;21226;-83
2021/03/04 00:05:14;;;;;;;16.97;10.15;;;;;;;6.99;49.24;97065.45;1757912;80;21117;-82
2021/03/04 00:07:42;;;;;;;23.02;11.57;;;;;;;6.91;49.61;97063.25;1784189;80;21244;-83
2021/03/04 00:10:16;;;;;;;18.98;10.45;;;;;;;6.88;49.79;97058.96;1767143;80;21137;-83
2021/03/04 00:12:44;;;;;;;20.88;11.68;;;;;;;6.82;49.91;97052.31;1756869;80;21136;-82
2021/03/04 00:15:15;;;;;;;20.23;12.25;;;;;;;6.77;50.16;97052.25;1745072;80;21674;-83
2021/03/04 00:17:45;;;;;;;23.98;12.20;;;;;;;6.69;50.20;97055.81;1748162;80;21101;-83
2021/03/04 00:20:21;;;;;;;21.25;12.10;;;;;;;6.52;50.55;97039.52;1751226;80;21124;-83
2021/03/04 00:22:48;;;;;;;19.57;11.78;;;;;;;6.44;51.16;97039.91;1759751;81;21471;-82
2021/03/04 00:25:18;;;;;;;23.85;12.40;;;;;;;6.43;51.58;97038.83;1761681;80;21162;-83
2021/03/04 00:27:45;;;;;;;18.53;10.63;;;;;;;6.35;51.90;97045.32;1768024;80;21289;-82
2021/03/04 00:30:16;;;;;;;23.32;11.63;;;;;;;6.34;52.29;97036.34;1760130;80;21268;-83
2021/03/04 00:32:44;;;;;;;18.27;10.20;;;;;;;6.38;52.33;97031.66;1761000;80;21125;-82
2021/03/04 00:35:12;;;;;;;23.15;12.80;;;;;;;6.41;52.53;97024.59;1760138;80;21133;-82
2021/03/04 00:37:40;;;;;;;19.77;11.38;;;;;;;6.26;52.61;97034.90;1762076;80;21143;-82
2021/03/04 00:40:12;;;;;;;23.07;10.85;;;;;;;6.04;52.96;97032.69;1754053;80;21160;-82
2021/03/04 00:42:40;;;;;;;18.52;9.65;;;;;;;5.89;53.69;97031.37;1757493;80;21134;-82
2021/03/04 00:45:10;;;;;;;21.62;11.12;;;;;;;5.86;54.21;97037.63;1762044;80;21086;-82
2021/03/04 00:47:38;;;;;;;18.52;10.80;;;;;;;5.81;54.32;97035.72;1760863;81;21113;-82
2021/03/04 00:50:07;;;;;;;19.98;10.35;;;;;;;5.62;54.52;97029.05;1760237;80;21100;-82
2021/03/04 00:52:35;;;;;;;16.62;9.58;;;;;;;5.54;55.06;97025.50;1761930;80;21142;-82
2021/03/04 00:55:03;;;;;;;18.95;10.32;;;;;;;5.50;55.39;97028.33;1771792;80;21281;-82
2021/03/04 00:57:30;;;;;;;15.35;8.33;;;;;;;5.49;55.45;97026.70;1768519;80;21139;-82
2021/03/04 00:59:58;;;;;;;16.15;9.55;;;;;;;5.50;55.48;97020.44;1765311;80;21154;-83
2021/03/04 01:02:25;;;;;;;20.57;10.75;;;;;;;5.49;55.59;97009.61;1769612;80;21477;-82
2021/03/04 01:04:52;;;;;;;16.27;9.00;;;;;;;5.46;55.71;97008.25;1783938;80;21112;-82
2021/03/04 01:07:19;;;;;;;15.70;8.40;;;;;;;5.44;55.96;97001.64;1767766;79;21186;-82
2021/03/04 01:09:47;;;;;;;20.37;11.28;;;;;;;5.46;56.09;97004.31;1775515;80;21113;-82
2021/03/04 01:12:14;;;;;;;22.80;12.00;;;;;;;5.45;55.94;97003.23;1760232;80;21141;-82
2021/03/04 01:14:41;;;;;;;19.15;10.82;;;;;;;5.31;55.93;97000.09;1760928;80;21080;-83
2021/03/04 01:17:12;;;;;;;23.83;12.00;;;;;;;5.11;56.27;96984.75;1771049;80;21118;-82
2021/03/04 01:19:39;;;;;;;20.00;10.70;;;;;;;4.95;56.57;96978.41;1770412;80;21141;-83
2021/03/04 01:22:07;;;;;;;20.92;11.73;;;;;;;4.82;57.16;96969.47;1768037;80;21129;-82
2021/03/04 01:24:34;;;;;;;20.82;12.23;;;;;;;4.75;57.44;96972.21;1768038;80;21129;-82
2021/03/04 01:27:01;;;;;;;18.70;10.20;;;;;;;4.79;57.11;96957.33;1768361;80;21138;-82
2021/03/04 01:29:29;;;;;;;20.00;10.70;;;;;;;4.85;57.64;96961.64;1768000;80;21136;-82
2021/03/04 01:31:56;;;;;;;16.40;9.03;;;;;;;5.01;57.61;96963.00;1750053;80;21161;-82
2021/03/04 01:34:23;;;;;;;23.65;10.80;;;;;;;5.14;57.39;96963.25;1775135;80;21147;-82
2021/03/04 01:36:50;;;;;;;19.12;9.10;;;;;;;5.21;57.39;96953.92;1764704;80;21592;-82
2021/03/04 01:39:18;;;;;;;21.37;11.78;;;;;;;5.27;57.31;96952.97;1774203;79;21524;-82
2021/03/04 01:41:45;;;;;;;18.30;9.83;;;;;;;5.29;57.27;96955.64;1768086;80;21101;-82
2021/03/04 01:44:12;;;;;;;22.25;13.32;;;;;;;5.28;57.40;96955.36;1777136;80;21145;-82
2021/03/04 01:46:40;;;;;;;23.38;13.13;;;;;;;5.28;57.35;96954.05;1769494;80;21526;-82
2021/03/04 01:49:07;;;;;;;18.70;11.22;;;;;;;5.23;57.56;96943.45;1770526;80;21108;-82
2021/03/04 01:51:37;;;;;;;21.97;13.35;;;;;;;5.25;57.65;96949.27;1771256;80;21485;-82
2021/03/04 01:54:07;;;;;;;16.87;7.97;;;;;;;5.14;58.10;96936.17;1770025;80;21131;-82
2021/03/04 01:56:35;;;;;;;20.08;12.60;;;;;;;5.14;58.10;96936.17;1776391;80;21122;-82
2021/03/04 01:59:03;;;;;;;16.87;8.88;;;;;;;5.15;58.21;96941.19;1767027;79;21124;-82
2021/03/04 02:01:30;;;;;;;20.17;10.03;;;;;;;5.19;58.45;96940.20;1780491;79;21147;-82
2021/03/04 02:03:58;;;;;;;18.27;10.48;;;;;;;5.17;58.55;96924.66;1789373;79;21109;-82
2021/03/04 02:06:30;;;;;;;20.75;9.73;;;;;;;5.14;58.73;96925.14;1759282;81;21293;-83
2021/03/04 02:09:01;;;;;;;16.25;9.48;;;;;;;5.08;59.38;96921.36;1783125;79;21154;-82
2021/03/04 02:11:36;;;;;;;23.92;11.22;;;;;;;5.08;59.39;96909.02;1780750;79;21441;-82
2021/03/04 02:14:14;;;;;;;23.87;12.55;;;;;;;5.04;59.71;96916.55;1770570;79;21129;-82
2021/03/04 02:16:46;;;;;;;16.65;9.88;;;;;;;5.04;59.87;96917.06;1771614;79;21170;-82
2021/03/04 02:19:46;;;;;;;20.62;10.93;;;;;;;5.04;60.46;96913.92;1752320;79;21181;-82
2021/03/04 02:22:36;;;;;;;25.72;13.65;;;;;;;5.16;60.66;96909.94;1782875;79;21106;-83
2021/03/04 02:25:18;;;;;;;24.57;13.05;;;;;;;5.25;60.74;96916.41;1768172;79;21495;-82
2021/03/04 02:27:50;;;;;;;23.98;11.45;;;;;;;5.33;60.62;96910.75;1774753;79;21163;-82
2021/03/04 02:30:36;;;;;;;18.42;11.40;;;;;;;5.30;60.74;96915.17;1775981;79;21527;-83
2021/03/04 02:33:20;;;;;;;24.72;13.13;;;;;;;5.23;61.06;96904.03;1771383;79;21176;-83
2021/03/04 02:35:49;;;;;;;16.95;8.98;;;;;;;5.26;61.20;96919.84;1777239;79;21150;-82
2021/03/04 02:38:21;;;;;;;17.90;10.48;;;;;;;5.22;61.19;96923.46;1785798;79;21112;-82
2021/03/04 02:40:52;;;;;;;18.37;11.33;;;;;;;5.11;61.24;96920.36;1776947;79;21168;-82
2021/03/04 02:43:22;;;;;;;22.65;11.35;;;;;;;4.98;61.53;96912.77;1781234;79;21507;-83
2021/03/04 02:45:52;;;;;;;25.48;13.10;;;;;;;4.95;61.57;96896.16;1779109;79;21132;-82
2021/03/04 02:48:21;;;;;;;23.87;12.78;;;;;;;4.88;61.72;96906.80;1783909;79;21173;-83
2021/03/04 02:50:52;;;;;;;29.27;15.00;;;;;;;4.80;62.00;96901.13;1786160;79;21164;-82
2021/03/04 02:53:20;;;;;;;20.97;10.82;;;;;;;4.75;62.65;96896.56;1783416;79;21116;-82
2021/03/04 02:55:48;;;;;;;25.15;15.40;;;;;;;4.71;62.71;96880.48;1757014;81;21134;-82
2021/03/04 02:58:16;;;;;;;24.43;11.57;;;;;;;4.66;63.08;96888.27;1772657;80;21141;-82
2021/03/04 03:00:44;;;;;;;28.52;13.00;;;;;;;4.73;63.44;96881.56;1755483;80;21160;-82
2021/03/04 03:03:13;;;;;;;20.12;11.12;;;;;;;4.74;63.73;96873.95;1772652;80;21106;-83
2021/03/04 03:05:45;;;;;;;16.15;9.40;;;;;;;4.92;63.79;96880.33;1764099;80;21174;-82
2021/03/04 03:08:17;;;;;;;28.57;14.30;;;;;;;4.97;63.94;96880.44;1764455;80;21127;-82
2021/03/04 03:10:47;;;;;;;22.10;13.38;;;;;;;5.03;64.12;96868.98;1759788;80;21489;-82
2021/03/04 03:13:16;;;;;;;22.13;12.80;;;;;;;5.12;64.35;96865.98;1767693;80;21125;-83
2021/03/04 03:15:44;;;;;;;33.23;12.78;;;;;;;5.18;64.34;96863.19;1760328;80;21126;-83
2021/03/04 03:18:12;;;;;;;27.75;15.75;;;;;;;5.24;64.25;96866.20;1763271;80;21103;-82
2021/03/04 03:20:39;;;;;;;20.17;12.80;;;;;;;5.28;64.18;96844.96;1764197;80;21141;-82
2021/03/04 03:23:06;;;;;;;34.80;19.20;;;;;;;5.28;64.44;96846.28;1774628;80;21152;-82
2021/03/04 03:25:33;;;;;;;29.75;16.48;;;;;;;5.30;64.51;96847.35;1770466;80;21155;-82
2021/03/04 03:28:00;;;;;;;26.42;13.85;;;;;;;5.26;64.57;96841.78;1751618;80;21653;-82
2021/03/04 03:30:30;;;;;;;30.43;16.65;;;;;;;5.23;64.95;96842.78;1775792;80;21129;-82
2021/03/04 03:33:11;;;;;;;26.12;13.60;;;;;;;5.19;65.15;96831.92;1767919;80;21220;-83
2021/03/04 03:35:41;;;;;;;23.83;15.18;;;;;;;5.17;65.36;96834.00;1767550;80;21137;-82
2021/03/04 03:38:08;;;;;;;25.10;14.98;;;;;;;5.19;65.60;96850.32;1772235;80;21181;-82
2021/03/04 03:40:38;;;;;;;27.62;14.43;;;;;;;5.21;65.75;96845.65;1760885;80;21131;-82
2021/03/04 03:43:10;;;;;;;23.70;14.40;;;;;;;5.19;65.91;96832.44;1767357;80;21535;-82
2021/03/04 03:45:42;;;;;;;33.78;15.78;;;;;;;5.16;66.07;96838.98;1765431;80;21128;-83
2021/03/04 03:48:13;;;;;;;24.43;14.70;;;;;;;5.18;66.26;96830.33;1773721;80;21123;-82
2021/03/04 03:50:47;;;;;;;29.52;17.27;;;;;;;5.20;66.28;96832.72;1774054;80;21134;-82
2021/03/04 03:53:16;;;;;;;30.40;15.10;;;;;;;5.19;66.56;96831.92;1766253;80;21478;-82
2021/03/04 03:55:48;;;;;;;25.25;14.93;;;;;;;5.23;66.44;96820.44;1759765;80;21185;-82
2021/03/04 03:58:22;;;;;;;27.05;13.98;;;;;;;5.23;66.64;96838.32;1753369;81;21138;-82
2021/03/04 04:00:55;;;;;;;26.17;14.13;;;;;;;5.24;66.57;96832.03;1747426;81;21525;-83
2021/03/04 04:03:24;;;;;;;34.85;20.23;;;;;;;5.18;66.66;96839.53;1762033;81;21126;-82
2021/03/04 04:05:52;;;;;;;28.57;15.90;;;;;;;5.14;66.62;96823.97;1762441;81;21157;-82
2021/03/04 04:08:21;;;;;;;29.15;16.57;;;;;;;5.15;66.67;96818.98;1749881;81;21500;-82
2021/03/04 04:10:48;;;;;;;35.55;21.52;;;;;;;5.17;66.84;96827.42;1753112;81;21497;-82
2021/03/04 04:13:16;;;;;;;38.10;21.50;;;;;;;5.18;66.67;96827.70;1760667;81;21247;-82
2021/03/04 04:15:43;;;;;;;26.48;15.28;;;;;;;5.19;66.71;96824.04;1755630;81;21143;-82
2021/03/04 04:18:11;;;;;;;32.40;16.42;;;;;;;5.22;66.75;96822.79;1748018;82;21144;-82
2021/03/04 04:20:39;;;;;;;30.52;18.20;;;;;;;5.25;66.73;96833.62;1734369;81;21124;-83
2021/03/04 04:23:07;;;;;;;27.10;15.20;;;;;;;5.28;66.66;96829.19;1743412;81;21117;-82
2021/03/04 04:25:39;;;;;;;38.02;20.12;;;;;;;5.25;66.77;96823.10;1750245;81;21091;-82
2021/03/04 04:28:06;;;;;;;23.92;14.10;;;;;;;5.26;66.97;96808.13;1736767;81;21600;-82
2021/03/04 04:30:33;;;;;;;32.93;18.42;;;;;;;5.26;67.08;96805.50;1766971;80;21184;-82
2021/03/04 04:33:00;;;;;;;40.38;23.47;;;;;;;5.25;66.94;96808.64;1760764;81;21363;-82
2021/03/04 04:35:27;;;;;;;30.17;16.45;;;;;;;5.29;66.62;96806.33;1744480;81;21146;-82
2021/03/04 04:37:54;;;;;;;26.45;15.93;;;;;;;5.31;66.65;96808.99;1763188;81;21144;-82
2021/03/04 04:40:21;;;;;;;29.55;15.80;;;;;;;5.33;66.49;96796.92;1749251;81;21146;-82
2021/03/04 04:42:48;;;;;;;30.05;16.93;;;;;;;5.33;66.50;96787.20;1750299;81;21147;-82
2021/03/04 04:45:15;;;;;;;29.35;14.47;;;;;;;5.31;66.54;96796.37;1753280;81;21160;-82
2021/03/04 04:47:42;;;;;;;33.42;19.92;;;;;;;5.28;66.70;96788.97;1766129;80;21114;-82
2021/03/04 04:50:11;;;;;;;25.80;14.33;;;;;;;5.27;66.47;96783.44;1773213;80;21511;-82
2021/03/04 04:52:37;;;;;;;32.78;18.50;;;;;;;5.22;66.69;96791.25;1768823;80;21174;-82
2021/03/04 04:55:06;;;;;;;29.18;17.12;;;;;;;5.20;66.83;96771.75;1785981;80;21136;-82
2021/03/04 04:57:33;;;;;;;25.77;13.62;;;;;;;5.20;66.79;96776.22;1788324;80;21134;-82
2021/03/04 05:00:00;;;;;;;29.48;17.05;;;;;;;5.19;66.76;96778.05;1778252;80;21167;-82
2021/03/04 05:02:27;;;;;;;33.25;21.45;;;;;;;5.23;66.87;96775.23;1775020;80;21139;-82
2021/03/04 05:04:54;;;;;;;32.58;19.70;;;;;;;5.24;66.74;96772.09;1783992;80;21526;-83
2021/03/04 05:07:21;;;;;;;32.50;18.25;;;;;;;5.26;66.75;96769.50;1790365;80;21241;-82
2021/03/04 05:09:48;;;;;;;35.90;20.15;;;;;;;5.27;66.61;96765.83;1791515;80;21279;-83
2021/03/04 05:12:15;;;;;;;34.33;20.77;;;;;;;5.26;66.66;96756.36;1774882;80;21196;-82
2021/03/04 05:14:42;;;;;;;36.88;20.10;;;;;;;5.26;66.53;96769.50;1776591;80;21464;-83
2021/03/04 05:17:10;;;;;;;26.00;15.40;;;;;;;5.24;66.65;96768.95;1781318;80;21460;-83
2021/03/04 05:19:37;;;;;;;31.42;17.52;;;;;;;5.24;66.59;96754.48;1750187;80;21205;-83
2021/03/04 05:22:04;;;;;;;26.25;12.43;;;;;;;5.27;66.37;96771.09;1757195;80;21119;-83
2021/03/04 05:24:31;;;;;;;29.65;17.98;;;;;;;5.26;66.49;96760.30;1780642;79;21265;-83
2021/03/04 05:26:58;;;;;;;31.65;18.57;;;;;;;5.26;66.49;96754.25;1786404;80;21502;-83
2021/03/04 05:29:25;;;;;;;26.52;15.35;;;;;;;5.23;66.52;96748.16;1773514;80;21155;-82
2021/03/04 05:31:52;;;;;;;23.83;12.55;;;;;;;5.20;66.63;96740.22;1765284;80;21138;-82
2021/03/04 05:34:20;;;;;;;28.83;16.65;;;;;;;5.22;66.59;96750.00;1761429;80;21503;-83
2021/03/04 05:36:47;;;;;;;31.00;18.32;;;;;;;5.23;66.55;96733.19;1778852;80;21121;-83
2021/03/04 05:39:14;;;;;;;35.38;19.82;;;;;;;5.21;66.41;96724.75;1780056;80;21135;-82
2021/03/04 05:41:41;;;;;;;31.07;15.58;;;;;;;5.23;66.59;96724.51;1774371;80;21197;-82
2021/03/04 05:44:08;;;;;;;26.70;15.78;;;;;;;5.23;66.63;96721.36;1748530;80;21261;-83
2021/03/04 05:46:37;;;;;;;31.27;16.10;;;;;;;5.27;66.42;96721.67;1766215;80;21533;-83
2021/03/04 05:49:06;;;;;;;29.60;16.30;;;;;;;5.29;66.45;96716.44;1765716;80;21501;-83
2021/03/04 05:51:43;;;;;;;26.93;14.47;;;;;;;5.29;66.28;96715.64;1767893;80;21209;-83
2021/03/04 05:54:14;;;;;;;33.73;19.20;;;;;;;5.30;66.22;96715.41;1760883;80;21117;-82
2021/03/04 05:56:44;;;;;;;36.05;18.95;;;;;;;5.34;65.99;96714.39;1770548;79;21526;-82
2021/03/04 05:59:14;;;;;;;30.53;16.23;;;;;;;5.39;65.89;96720.27;1754205;79;21107;-82
2021/03/04 06:01:43;;;;;;;28.10;15.88;;;;;;;5.40;65.80;96715.28;1777592;79;21103;-83
2021/03/04 06:04:12;;;;;;;30.55;18.40;;;;;;;5.41;65.70;96719.49;1781976;79;21158;-82
2021/03/04 06:06:39;;;;;;;26.45;15.95;;;;;;;5.41;65.74;96720.29;1784144;79;21467;-83
2021/03/04 06:09:07;;;;;;;29.25;17.10;;;;;;;5.44;65.48;96720.31;1796443;79;21083;-83
2021/03/04 06:11:37;;;;;;;30.00;16.57;;;;;;;5.47;65.38;96716.67;1794042;79;21527;-82
2021/03/04 06:14:07;;;;;;;22.45;12.50;;;;;;;5.50;65.15;96719.36;1779962;79;21080;-83
2021/03/04 06:16:34;;;;;;;28.47;16.45;;;;;;;5.51;64.93;96705.17;1778637;79;21104;-83
2021/03/04 06:19:02;;;;;;;31.35;17.15;;;;;;;5.51;64.79;96711.75;1761006;80;21138;-83
2021/03/04 06:21:29;;;;;;;25.08;14.98;;;;;;;5.50;64.62;96707.53;1755256;79;21525;-82
2021/03/04 06:23:58;;;;;;;29.65;16.85;;;;;;;5.48;64.53;96709.06;1781628;79;21539;-83
2021/03/04 06:26:38;;;;;;;27.80;16.20;;;;;;;5.45;64.37;96704.30;1787723;79;21098;-83
2021/03/04 06:29:21;;;;;;;27.90;17.05;;;;;;;5.45;64.16;96701.67;1772732;79;21165;-83
2021/03/04 06:32:05;;;;;;;30.12;17.73;;;;;;;5.49;64.15;96709.86;1790688;79;21448;-83
2021/03/04 06:34:33;;;;;;;25.27;12.43;;;;;;;5.55;63.89;96708.91;1782755;79;21099;-83
2021/03/04 06:37:04;;;;;;;20.32;12.58;;;;;;;5.72;63.18;96699.13;1781436;79;21587;-83
2021/03/04 06:39:47;;;;;;;30.60;17.20;;;;;;;5.86;62.61;96696.40;1760137;79;21151;-83
2021/03/04 06:42:17;;;;;;;29.45;16.50;;;;;;;6.01;62.40;96696.33;1789857;79;21513;-83
2021/03/04 06:44:48;;;;;;;25.25;15.18;;;;;;;6.18;61.75;96710.98;1776330;80;21104;-83
2021/03/04 06:47:28;;;;;;;27.67;16.30;;;;;;;6.41;61.02;96696.74;1762368;79;21175;-82
2021/03/04 06:49:57;;;;;;;29.00;16.23;;;;;;;6.44;60.51;96698.88;1780404;79;21169;-83
2021/03/04 06:52:28;;;;;;;20.75;11.38;;;;;;;6.46;60.75;96695.47;1774097;79;21149;-83
2021/03/04 06:55:07;;;;;;;25.15;14.73;;;;;;;6.46;60.18;96687.56;1797363;79;21515;-83
2021/03/04 06:57:34;;;;;;;29.23;15.40;;;;;;;6.48;60.05;96688.66;1801418;79;21100;-82
2021/03/04 07:00:01;;;;;;;28.25;15.40;;;;;;;6.50;60.12;96688.67;1785646;79;21545;-82
2021/03/04 07:02:30;;;;;;;27.58;15.70;;;;;;;6.54;60.21;96697.66;1771922;79;21184;-82
2021/03/04 07:05:00;;;;;;;20.75;13.00;;;;;;;6.60;60.08;96693.73;1781660;79;21119;-82
2021/03/04 07:07:29;;;;;;;26.40;15.07;;;;;;;6.64;59.74;96683.79;1776973;79;21126;-82
2021/03/04 07:09:59;;;;;;;29.48;15.83;;;;;;;6.70;59.74;96681.98;1801651;79;21119;-82
2021/03/04 07:12:27;;;;;;;30.05;16.12;;;;;;;6.72;59.61;96693.85;1778019;79;21151;-82
2021/03/04 07:14:55;;;;;;;27.22;15.65;;;;;;;6.76;59.28;96685.73;1779876;79;21615;-82
2021/03/04 07:17:26;;;;;;;26.23;15.60;;;;;;;6.83;59.07;96688.94;1777975;79;21126;-82
2021/03/04 07:20:01;;;;;;;27.25;15.35;;;;;;;6.89;58.81;96691.08;1775131;79;21147;-82
2021/03/04 07:22:31;;;;;;;24.32;15.58;;;;;;;6.95;58.62;96684.81;1777677;79;21110;-82
2021/03/04 07:24:59;;;;;;;26.40;15.98;;;;;;;7.01;58.50;96699.61;1773883;79;21107;-82
2021/03/04 07:27:27;;;;;;;25.92;15.18;;;;;;;7.05;58.38;96687.53;1779608;79;21123;-82
2021/03/04 07:29:54;;;;;;;26.20;13.72;;;;;;;7.08;58.04;96681.75;1789097;79;21136;-82
2021/03/04 07:32:23;;;;;;;33.02;14.70;;;;;;;7.16;57.33;96680.46;1790094;79;21115;-82
2021/03/04 07:34:51;;;;;;;18.95;10.20;;;;;;;7.21;57.06;96686.31;1781026;79;21139;-82
2021/03/04 07:37:19;;;;;;;22.67;14.07;;;;;;;7.30;56.50;96688.72;1781682;79;21140;-82
2021/03/04 07:39:48;;;;;;;22.93;12.18;;;;;;;7.37;56.50;96694.58;1778685;79;21152;-82
2021/03/04 07:42:20;;;;;;;22.77;11.10;;;;;;;7.48;56.33;96696.75;1782847;79;21174;-83
2021/03/04 07:44:47;;;;;;;23.47;12.60;;;;;;;7.53;55.68;96689.65;1774342;79;21141;-82
2021/03/04 07:47:18;;;;;;;27.32;14.58;;;;;;;7.62;55.64;96687.33;1769034;79;21083;-83
2021/03/04 07:49:45;;;;;;;;;;;;;;;7.72;55.86;96696.06;1745163;81;21163;-82
2021/03/04 07:52:22;;;;;;;27.50;15.15;;;;;;;7.87;56.02;96693.22;1742548;81;20130;-82
2021/03/04 07:54:56;;;;;;;23.45;12.98;;;;;;;8.03;55.58;96688.28;1763424;79;21127;-82
2021/03/04 07:57:26;;;;;;;24.63;13.55;;;;;;;8.25;54.68;96690.17;1764775;79;21476;-83
2021/03/04 08:00:03;;;;;;;20.55;13.45;;;;;;;8.60;53.38;96687.37;1756406;80;21175;-83
2021/03/04 08:02:37;;;;;;;25.05;13.30;;;;;;;9.01;52.51;96690.81;1764885;80;21148;-82
2021/03/04 08:05:15;;;;;;;22.42;12.68;;;;;;;9.31;51.16;96687.33;1756167;80;21118;-82
2021/03/04 08:07:49;;;;;;;24.12;13.10;;;;;;;9.70;49.99;96680.05;1759154;80;21139;-83
2021/03/04 08:10:23;;;;;;;24.25;14.15;;;;;;;9.80;48.78;96680.02;1737029;80;21567;-83
2021/03/04 08:13:00;;;;;;;19.70;11.88;;;;;;;9.85;49.26;96680.52;1759683;80;21120;-82
2021/03/04 08:15:41;;;;;;;27.22;15.78;;;;;;;9.85;48.72;96684.50;1768103;80;21127;-83
2021/03/04 08:18:24;;;;;;;23.45;13.62;;;;;;;9.62;49.14;96677.45;1765100;80;21158;-83
2021/03/04 08:20:54;;;;;;;24.55;15.08;;;;;;;9.37;49.75;96676.19;1769359;80;21445;-82
2021/03/04 08:23:22;;;;;;;26.42;15.15;;;;;;;9.25;50.17;96684.41;1767716;80;21262;-82
2021/03/04 08:25:49;;;;;;;23.92;15.05;;;;;;;9.24;50.87;96681.50;1771477;80;21174;-82
2021/03/04 08:28:27;;;;;;;27.10;15.63;;;;;;;9.33;50.54;96677.27;1770740;80;21121;-82
2021/03/04 08:30:56;;;;;;;25.43;15.18;;;;;;;9.37;50.59;96673.02;1755358;80;21138;-82
2021/03/04 08:33:23;;;;;;;26.37;17.45;;;;;;;9.17;50.53;96667.78;1750086;81;21120;-82
2021/03/04 08:35:55;;;;;;;23.07;15.30;;;;;;;9.14;51.32;96651.09;1771551;80;21162;-82
2021/03/04 08:38:22;;;;;;;24.12;15.75;;;;;;;9.25;51.18;96655.84;1766233;80;21145;-83
2021/03/04 08:40:55;;;;;;;26.52;15.32;;;;;;;9.38;51.43;96657.93;1769258;80;21126;-82
2021/03/04 08:43:28;;;;;;;24.25;14.53;;;;;;;9.46;51.49;96652.09;1774104;80;21122;-82
2021/03/04 08:45:59;;;;;;;23.85;13.22;;;;;;;9.46;50.55;96650.24;1772241;80;21151;-82
2021/03/04 08:48:27;;;;;;;21.33;13.32;;;;;;;9.58;50.29;96647.83;1767290;80;21095;-82
2021/03/04 08:51:00;;;;;;;23.67;12.90;;;;;;;9.58;49.82;96643.86;1765162;80;21195;-82
2021/03/04 08:53:33;;;;;;;22.50;13.60;;;;;;;9.50;49.46;96639.91;1758892;80;21448;-82
2021/03/04 08:56:10;;;;;;;21.80;13.35;;;;;;;9.44;49.87;96640.47;1765976;80;21146;-82
2021/03/04 08:58:42;;;;;;;23.25;14.40;;;;;;;9.60;49.98;96645.17;1727463;82;21157;-82
2021/03/04 09:01:12;;;;;;;26.27;14.20;;;;;;;9.68;49.63;96645.13;1759963;80;21191;-82
2021/03/04 09:03:43;;;;;;;24.52;15.28;;;;;;;9.75;49.72;96647.75;1764776;80;21175;-82
2021/03/04 09:06:14;;;;;;;24.52;13.30;;;;;;;9.95;50.26;96656.13;1766093;80;21137;-82
2021/03/04 09:08:51;;;;;;;22.75;12.50;;;;;;;10.11;49.26;96649.67;1767063;80;21319;-82
2021/03/04 09:11:32;;;;;;;27.67;14.47;;;;;;;10.22;49.78;96649.66;1739407;80;21212;-82
2021/03/04 09:14:06;;;;;;;29.10;16.25;;;;;;;10.46;49.88;96640.50;1761178;80;21138;-82
2021/03/04 09:16:46;;;;;;;25.88;16.10;;;;;;;10.54;48.67;96642.00;1758651;80;21171;-83
2021/03/04 09:19:39;;;;;;;23.35;14.98;;;;;;;10.55;48.80;96636.95;1748982;80;21473;-83
2021/03/04 09:22:10;;;;;;;27.70;15.55;;;;;;;10.63;48.42;96637.70;1756947;80;21143;-83
2021/03/04 09:24:39;;;;;;;;;;;;;;;10.72;49.00;96634.47;1767290;80;21486;-83
2021/03/04 09:27:10;;;;;;;28.62;15.28;;;;;;;10.81;48.97;96634.11;1765857;80;20150;-83
2021/03/04 09:29:42;;;;;;;28.30;15.88;;;;;;;10.76;48.28;96620.91;1763622;80;21111;-83
2021/03/04 09:32:12;;;;;;;33.55;20.40;;;;;;;10.77;48.91;96630.44;1761225;80;21543;-83
2021/03/04 09:34:45;;;;;;;33.20;21.37;;;;;;;10.76;49.03;96626.20;1758363;80;21102;-83
2021/03/04 09:37:17;;;;;;;31.12;18.95;;;;;;;10.92;49.33;96619.16;1766621;80;21453;-83
2021/03/04 09:39:48;;;;;;;30.95;18.27;;;;;;;11.00;48.33;96620.42;1759878;80;21159;-83
2021/03/04 09:42:34;;;;;;;35.28;21.12;;;;;;;11.12;48.96;96616.86;1766625;80;21138;-83
2021/03/04 09:45:11;;;;;;;34.58;21.75;;;;;;;11.27;49.21;96612.72;1760507;80;21160;-83
2021/03/04 09:47:48;;;;;;;35.98;23.35;;;;;;;11.37;49.54;96599.06;1764315;80;21164;-83
2021/03/04 09:50:24;;;;;;;39.42;20.15;;;;;;;11.28;49.57;96594.93;1772304;80;21082;-83
2021/03/04 09:53:05;;;;;;;36.88;23.90;;;;;;;10.99;50.20;96587.80;1770506;80;21135;-83
2021/03/04 09:55:42;;;;;;;;;;;;;;;11.02;51.08;96593.61;1786404;80;21298;-83
2021/03/04 09:58:22;;;;;;;45.95;27.98;;;;;;;11.06;50.55;96606.03;1769448;80;20157;-84
2021/03/04 10:00:58;;;;;;;33.28;19.07;;;;;;;11.16;50.71;96586.03;1762090;80;21157;-83
2021/03/04 10:03:38;;;;;;;28.67;17.10;;;;;;;11.26;49.82;96585.92;1775982;80;21465;-83
2021/03/04 10:06:06;;;;;;;40.95;24.05;;;;;;;11.24;49.49;96575.31;1777295;80;21497;-83
2021/03/04 10:08:39;;;;;;;31.25;20.92;;;;;;;11.32;50.44;96584.53;1784772;80;21094;-83
2021/03/04 10:11:07;;;;;;;35.03;23.32;;;;;;;11.48;49.62;96585.93;1758095;80;21149;-83
2021/03/04 10:13:35;;;;;;;36.10;21.37;;;;;;;11.49;49.49;96572.37;1768347;80;21506;-84
2021/03/04 10:16:14;;;;;;;33.53;19.67;;;;;;;11.43;49.18;96570.08;1767291;80;21136;-83
2021/03/04 10:18:50;;;;;;;37.93;22.00;;;;;;;11.33;49.10;96588.23;1756401;82;21155;-83
2021/03/04 10:21:19;;;;;;;44.55;23.98;;;;;;;11.27;49.58;96583.52;1759044;80;21249;-83
2021/03/04 10:23:48;;;;;;;35.92;21.12;;;;;;;11.32;49.35;96588.52;1740042;80;21129;-83
2021/03/04 10:26:16;;;;;;;35.43;21.45;;;;;;;11.27;49.22;96584.85;1765644;80;21498;-83
2021/03/04 10:28:43;;;;;;;30.95;18.95;;;;;;;11.19;49.99;96586.00;1764711;80;21461;-83
2021/03/04 10:31:10;;;;;;;31.07;18.25;;;;;;;11.15;49.05;96581.80;1773085;80;21229;-83
2021/03/04 10:33:38;;;;;;;35.83;22.25;;;;;;;11.06;49.40;96564.91;1760084;80;21120;-83
2021/03/04 10:36:06;;;;;;;33.28;19.62;;;;;;;11.02;50.36;96559.92;1769372;80;21120;-83
2021/03/04 10:38:33;;;;;;;33.45;20.57;;;;;;;10.99;49.31;96569.77;1769507;80;21164;-83
2021/03/04 10:41:00;;;;;;;33.42;20.70;;;;;;;10.94;49.70;96554.68;1757540;80;21141;-83
2021/03/04 10:43:27;;;;;;;40.10;20.30;;;;;;;10.93;50.03;96565.58;1775417;80;21132;-83
2021/03/04 10:45:55;;;;;;;38.02;23.95;;;;;;;10.89;50.10;96563.23;1768457;80;21161;-83
2021/03/04 10:48:22;;;;;;;37.05;21.73;;;;;;;10.87;50.23;96569.36;1769334;80;21122;-83
2021/03/04 10:50:50;;;;;;;30.27;18.98;;;;;;;10.88;50.25;96571.73;1768242;80;21120;-83
2021/03/04 10:53:18;;;;;;;29.07;18.80;;;;;;;10.86;50.57;96559.83;1765565;80;21208;-83
2021/03/04 10:55:45;;;;;;;56.45;32.08;;;;;;;10.82;50.52;96562.76;1763310;80;21623;-83
2021/03/04 10:58:12;;;;;;;89.70;41.00;;;;;;;10.83;50.86;96561.69;1763850;81;21542;-83
2021/03/04 11:00:41;;;;;;;80.45;38.25;;;;;;;10.82;50.56;96552.94;1771033;80;21455;-83
2021/03/04 11:03:08;;;;;;;58.87;30.43;;;;;;;10.84;50.78;96546.03;1764930;80;21113;-83
2021/03/04 11:05:36;;;;;;;47.78;27.30;;;;;;;10.77;50.36;96545.05;1760407;80;21124;-83
2021/03/04 11:08:03;;;;;;;48.20;27.73;;;;;;;10.75;50.53;96536.59;1778249;80;21117;-83
2021/03/04 11:10:31;;;;;;;43.95;23.98;;;;;;;10.76;51.10;96540.03;1784602;80;21121;-83
2021/03/04 11:12:58;;;;;;;42.53;25.57;;;;;;;10.77;51.02;96534.98;1773907;80;21113;-83
2021/03/04 11:15:26;;;;;;;42.62;23.25;;;;;;;10.82;51.34;96525.64;1775231;80;21132;-83
2021/03/04 11:17:54;;;;;;;33.63;19.55;;;;;;;10.87;50.76;96520.30;1751018;80;21170;-84
2021/03/04 11:20:21;;;;;;;37.98;23.42;;;;;;;10.90;50.40;96521.05;1751682;80;21117;-84
2021/03/04 11:22:49;;;;;;;31.85;18.12;;;;;;;10.89;50.58;96515.50;1766560;80;21183;-83
2021/03/04 11:25:16;;;;;;;35.00;20.35;;;;;;;10.87;49.90;96507.83;1777234;80;21493;-83
2021/03/04 11:27:44;;;;;;;33.13;19.55;;;;;;;10.85;50.13;96502.55;1788806;80;21125;-83
2021/03/04 11:30:13;;;;;;;34.45;19.80;;;;;;;10.86;50.39;96499.62;1781667;80;21140;-83
2021/03/04 11:32:40;;;;;;;36.45;20.77;;;;;;;10.90;50.67;96493.20;1766874;80;21105;-83
2021/03/04 11:35:09;;;;;;;36.08;23.80;;;;;;;10.97;50.72;96488.34;1772287;80;21145;-83
2021/03/04 11:37:36;;;;;;;38.92;23.87;;;;;;;11.04;50.79;96484.03;1771171;80;21120;-83